Time;durP1;ratioP1;P1;durP2;ratioP2;P2;SDS_P1;SDS_P2;PMS_P1;PMS_P2;Temp;Humidity;BMP_temperature;BMP_pressure;BME280_temperature;BME280_humidity;BME280_pressure;Samples;Min_cycle;Max_cycle;Signal;HPM_P1;HPM_P2
2023/01/23 00:02:06;;;;;;;11.65;5.60;;;5.20;99.90;;;;;;6291184;22;20018;-77
2023/01/23 00:04:37;;;;;;;11.10;5.93;;;2.80;99.90;;;;;;6265763;22;20059;-77
2023/01/23 00:07:02;;;;;;;10.80;5.68;;;2.80;99.90;;;;;;6265738;22;20011;-76
2023/01/23 00:09:28;;;;;;;9.65;5.00;;;3.00;99.90;;;;;;6290462;22;20018;-77
2023/01/23 00:11:57;;;;;;;13.55;5.20;;;3.00;99.90;;;;;;6259244;22;20286;-76
2023/01/23 00:14:22;;;;;;;10.02;5.28;;;2.50;99.90;;;;;;6235459;22;20030;-76
2023/01/23 00:16:48;;;;;;;7.05;5.30;;;3.90;99.90;;;;;;6234919;22;20018;-76
2023/01/23 00:19:17;;;;;;;9.02;5.53;;;2.90;99.90;;;;;;6235881;22;20241;-76
2023/01/23 00:21:43;;;;;;;8.13;5.20;;;3.00;99.90;;;;;;6257663;22;20018;-76
2023/01/23 00:24:10;;;;;;;8.23;5.13;;;2.80;99.90;;;;;;6259620;22;20046;-77
2023/01/23 00:26:41;;;;;;;10.15;5.38;;;2.00;99.90;;;;;;6258401;22;20010;-77
2023/01/23 00:29:10;;;;;;;9.48;4.50;;;3.90;99.90;;;;;;6285355;22;20011;-77
2023/01/23 00:31:46;;;;;;;10.20;5.20;;;2.20;99.90;;;;;;6258430;22;20011;-78
2023/01/23 00:34:22;;;;;;;10.38;5.28;;;3.10;99.90;;;;;;6235689;22;20022;-78
2023/01/23 00:36:51;;;;;;;8.98;5.40;;;3.60;99.90;;;;;;6260553;22;20185;-78
2023/01/23 00:39:21;;;;;;;8.88;5.15;;;3.00;99.90;;;;;;6209200;22;20007;-77
2023/01/23 00:41:48;;;;;;;9.63;4.80;;;2.80;99.90;;;;;;6259054;22;20046;-77
2023/01/23 00:44:15;;;;;;;8.05;4.88;;;4.50;99.90;;;;;;6258996;22;20034;-78
2023/01/23 00:46:48;;;;;;;11.35;5.55;;;3.10;99.90;;;;;;6284317;22;20082;-77
2023/01/23 00:49:16;;;;;;;10.13;4.93;;;3.70;99.90;;;;;;6259695;22;20018;-75
2023/01/23 00:52:26;;;;;;;9.85;5.35;;;2.90;99.90;;;;;;6234253;22;20023;-76
2023/01/23 00:54:52;;;;;;;8.73;5.60;;;3.20;99.90;;;;;;6242111;22;20025;-75
2023/01/23 00:57:18;;;;;;;8.73;4.85;;;2.90;99.90;;;;;;6258408;22;20294;-75
2023/01/23 00:59:43;;;;;;;8.90;4.70;;;4.00;99.90;;;;;;6284754;22;20020;-75
2023/01/23 01:02:09;;;;;;;10.23;5.50;;;3.60;99.90;;;;;;6285596;22;20011;-75
2023/01/23 01:04:35;;;;;;;8.25;4.97;;;5.00;99.90;;;;;;6259203;22;20256;-75
2023/01/23 01:07:01;;;;;;;7.43;5.05;;;2.90;99.90;;;;;;6284634;22;20011;-75
2023/01/23 01:09:26;;;;;;;8.60;4.97;;;3.70;99.90;;;;;;6259154;22;20013;-75
2023/01/23 01:11:52;;;;;;;9.52;5.45;;;2.80;99.90;;;;;;6259084;22;20073;-75
2023/01/23 01:14:18;;;;;;;9.65;5.00;;;2.90;99.90;;;;;;6258985;22;20031;-74
2023/01/23 01:16:45;;;;;;;8.88;4.40;;;3.40;99.90;;;;;;6257603;22;20050;-76
2023/01/23 01:19:17;;;;;;;11.88;5.30;;;3.10;99.90;;;;;;6259667;22;20015;-76
2023/01/23 01:21:42;;;;;;;9.38;5.07;;;2.90;99.90;;;;;;6284788;22;20294;-76
2023/01/23 01:24:09;;;;;;;10.85;5.40;;;3.00;99.90;;;;;;6232487;22;20061;-76
2023/01/23 01:26:35;;;;;;;12.25;5.00;;;2.90;99.90;;;;;;6232953;22;20198;-76
2023/01/23 01:29:06;;;;;;;9.23;5.82;;;2.90;99.90;;;;;;6233906;22;20015;-77
2023/01/23 01:31:42;;;;;;;10.25;5.15;;;3.50;99.90;;;;;;6311958;22;20357;-76
2023/01/23 01:34:07;;;;;;;10.32;5.72;;;3.10;99.90;;;;;;6259072;22;20077;-76
2023/01/23 01:36:33;;;;;;;11.18;5.28;;;3.60;99.90;;;;;;6258847;22;20008;-76
2023/01/23 01:38:59;;;;;;;12.52;6.25;;;3.00;99.90;;;;;;6233338;22;20034;-75
2023/01/23 01:41:24;;;;;;;9.85;5.07;;;3.00;99.90;;;;;;6284484;22;20239;-75
2023/01/23 01:43:52;;;;;;;12.63;5.10;;;3.00;99.90;;;;;;6261659;22;20067;-75
2023/01/23 01:46:23;;;;;;;9.15;5.85;;;2.80;99.90;;;;;;6259763;22;20090;-75
2023/01/23 01:49:08;;;;;;;9.02;5.15;;;2.80;99.90;;;;;;6260533;22;20346;-75
2023/01/23 01:51:55;;;;;;;9.27;5.45;;;3.00;99.90;;;;;;6286793;22;20073;-75
2023/01/23 01:54:35;;;;;;;8.20;4.93;;;2.80;99.90;;;;;;6260440;22;20007;-74
2023/01/23 01:57:05;;;;;;;9.32;5.28;;;2.80;99.90;;;;;;6261092;22;20081;-75
2023/01/23 01:59:35;;;;;;;10.80;5.20;;;3.00;99.90;;;;;;6286623;22;20060;-75
2023/01/23 02:02:10;;;;;;;12.48;5.45;;;3.50;99.90;;;;;;6260969;22;20045;-75
2023/01/23 02:04:41;;;;;;;7.70;5.47;;;3.00;99.90;;;;;;6260729;22;20011;-74
2023/01/23 02:07:16;;;;;;;11.48;6.10;;;3.60;99.90;;;;;;6286227;22;20342;-75
2023/01/23 02:09:42;;;;;;;8.55;5.28;;;2.80;99.90;;;;;;6259431;22;20034;-76
2023/01/23 02:12:08;;;;;;;10.63;5.43;;;4.90;99.90;;;;;;6261018;22;20037;-75
2023/01/23 02:14:34;;;;;;;8.40;5.38;;;3.00;99.90;;;;;;6259084;22;20039;-76
2023/01/23 02:17:02;;;;;;;8.23;5.25;;;3.70;99.90;;;;;;6285468;22;20015;-76
2023/01/23 02:19:39;;;;;;;9.88;5.28;;;4.80;99.90;;;;;;6259675;22;20023;-75
2023/01/23 02:22:31;;;;;;;12.00;5.93;;;2.90;99.90;;;;;;6260562;22;20306;-76
2023/01/23 02:25:19;;;;;;;8.73;6.13;;;4.00;99.90;;;;;;6285600;22;20019;-76
2023/01/23 02:27:45;;;;;;;9.48;5.72;;;2.80;99.90;;;;;;6284759;22;20269;-75
2023/01/23 02:30:12;;;;;;;9.02;5.15;;;2.80;99.90;;;;;;6234307;22;20055;-75
2023/01/23 02:32:38;;;;;;;9.77;5.85;;;2.90;99.90;;;;;;6283717;22;20194;-76
2023/01/23 02:35:14;;;;;;;10.32;5.28;;;2.90;99.90;;;;;;6260666;22;20007;-76
2023/01/23 02:37:44;;;;;;;9.35;5.93;;;2.90;99.90;;;;;;6285447;22;20007;-76
2023/01/23 02:40:52;;;;;;;10.30;5.72;;;2.90;99.90;;;;;;6260590;22;20011;-77
2023/01/23 02:43:36;;;;;;;7.60;5.05;;;2.80;99.90;;;;;;6130822;23;20044;-77
2023/01/23 02:46:03;;;;;;;7.93;5.50;;;2.80;99.90;;;;;;6107989;23;20076;-77
2023/01/23 02:48:29;;;;;;;11.93;6.22;;;2.90;99.90;;;;;;6198318;22;20011;-76
2023/01/23 02:50:55;;;;;;;10.07;5.63;;;3.00;99.90;;;;;;6285384;22;20011;-77
2023/01/23 02:53:20;;;;;;;8.98;5.68;;;4.50;99.90;;;;;;6259739;22;20007;-76
2023/01/23 02:55:46;;;;;;;11.23;6.43;;;3.00;99.90;;;;;;6283622;22;20011;-77
2023/01/23 03:00:56;;;;;;;9.90;5.83;;;2.80;99.90;;;;;;6262199;22;20038;-76
2023/01/23 03:03:22;;;;;;;9.18;5.32;;;4.70;99.90;;;;;;6285110;22;20238;-76
2023/01/23 03:05:49;;;;;;;12.25;6.22;;;2.70;99.90;;;;;;6285606;22;20391;-76
2023/01/23 03:08:15;;;;;;;16.13;6.35;;;2.70;99.90;;;;;;6234974;22;20019;-76
2023/01/23 03:10:41;;;;;;;11.48;5.65;;;2.90;99.90;;;;;;6234313;22;20019;-77
2023/01/23 03:13:10;;;;;;;10.15;6.20;;;4.80;99.90;;;;;;6260438;22;20061;-76
2023/01/23 03:15:43;;;;;;;11.05;5.55;;;2.90;99.90;;;;;;6257848;22;20015;-76
2023/01/23 03:18:08;;;;;;;10.60;5.90;;;3.90;99.90;;;;;;6260317;22;20010;-77
2023/01/23 03:20:39;;;;;;;10.05;5.45;;;2.70;99.90;;;;;;6234633;22;20066;-76
2023/01/23 03:23:05;;;;;;;9.23;5.57;;;2.70;99.90;;;;;;6260082;22;20019;-76
2023/01/23 03:25:31;;;;;;;8.25;6.07;;;2.80;99.90;;;;;;6233213;22;20039;-78
2023/01/23 03:27:59;;;;;;;9.88;5.90;;;3.30;99.90;;;;;;6232297;22;20206;-76
2023/01/23 03:30:27;;;;;;;10.30;6.03;;;3.40;99.90;;;;;;6234137;22;20011;-76
2023/01/23 03:33:07;;;;;;;9.98;5.70;;;3.60;99.90;;;;;;6259810;22;20015;-76
2023/01/23 03:35:43;;;;;;;9.90;5.45;;;2.90;99.90;;;;;;6288484;22;20015;-76
2023/01/23 03:38:09;;;;;;;10.20;6.53;;;2.80;99.90;;;;;;6258730;22;20050;-76
2023/01/23 03:43:18;;;;;;;9.57;5.93;;;3.00;99.90;;;;;;6285003;22;20030;-76
2023/01/23 03:45:44;;;;;;;10.88;6.47;;;4.00;99.90;;;;;;6234498;22;20011;-76
2023/01/23 03:48:10;;;;;;;10.25;5.97;;;4.50;99.90;;;;;;6232742;22;20011;-76
2023/01/23 03:50:35;;;;;;;12.85;6.43;;;3.20;99.90;;;;;;6258502;22;20026;-76
2023/01/23 03:53:01;;;;;;;9.02;5.85;;;3.80;99.90;;;;;;6234206;22;20018;-76
2023/01/23 03:55:29;;;;;;;10.63;7.45;;;4.60;99.90;;;;;;6258599;22;20026;-76
2023/01/23 03:57:55;;;;;;;10.60;6.07;;;2.90;99.90;;;;;;6234354;22;20245;-76
2023/01/23 04:04:07;;;;;;;9.68;6.57;;;2.80;99.90;;;;;;6128069;23;20014;-74
2023/01/23 04:06:33;;;;;;;13.57;6.43;;;3.00;99.90;;;;;;6169455;23;20287;-74
2023/01/23 04:08:59;;;;;;;11.20;6.55;;;2.80;99.90;;;;;;6148202;23;20112;-75
2023/01/23 04:11:25;;;;;;;10.40;6.15;;;2.80;99.90;;;;;;6222430;23;20012;-78
2023/01/23 04:13:52;;;;;;;13.65;7.38;;;2.90;99.90;;;;;;6252838;22;20028;-75
2023/01/23 04:16:21;;;;;;;11.25;6.32;;;3.30;99.90;;;;;;6253878;22;20399;-76
2023/01/23 04:18:50;;;;;;;11.40;6.97;;;2.60;99.90;;;;;;6228760;22;20007;-76
2023/01/23 04:21:16;;;;;;;8.77;6.07;;;2.80;99.90;;;;;;6227112;22;20023;-76
2023/01/23 04:23:42;;;;;;;13.60;6.82;;;2.70;99.90;;;;;;6253619;22;20027;-76
2023/01/23 04:26:08;;;;;;;11.45;6.82;;;3.60;99.90;;;;;;6249764;22;20078;-76
2023/01/23 04:28:33;;;;;;;12.18;6.20;;;3.00;99.90;;;;;;6202305;22;20019;-77
2023/01/23 04:30:59;;;;;;;8.15;6.40;;;2.90;99.90;;;;;;6176107;22;20011;-76
2023/01/23 04:33:25;;;;;;;10.88;5.97;;;3.70;99.90;;;;;;6262602;22;20065;-75
2023/01/23 04:35:53;;;;;;;10.68;6.13;;;2.80;99.90;;;;;;6289907;22;20014;-76
2023/01/23 04:38:19;;;;;;;7.93;5.65;;;2.70;99.90;;;;;;6290798;22;20003;-76
2023/01/23 04:40:46;;;;;;;8.20;5.50;;;2.70;99.90;;;;;;6314862;22;20205;-76
2023/01/23 04:43:12;;;;;;;11.73;6.30;;;2.80;99.90;;;;;;6289754;22;20056;-76
2023/01/23 04:45:38;;;;;;;12.38;5.65;;;2.70;99.90;;;;;;6314804;22;20216;-76
2023/01/23 04:48:04;;;;;;;8.40;5.80;;;2.60;99.90;;;;;;6263229;22;20068;-75
2023/01/23 04:50:30;;;;;;;9.45;5.03;;;2.80;99.90;;;;;;6315238;22;20175;-76
2023/01/23 04:53:01;;;;;;;10.23;5.88;;;2.80;99.90;;;;;;6264503;22;20228;-76
2023/01/23 04:55:27;;;;;;;11.35;6.88;;;5.10;99.90;;;;;;6288535;22;20394;-76
2023/01/23 04:57:53;;;;;;;10.35;5.75;;;2.70;99.90;;;;;;6288129;22;20006;-75
2023/01/23 05:00:20;;;;;;;11.25;6.07;;;2.70;99.90;;;;;;6264321;22;20301;-75
2023/01/23 05:02:47;;;;;;;11.23;5.75;;;2.90;99.90;;;;;;6265509;22;20011;-76
2023/01/23 05:05:13;;;;;;;9.32;6.10;;;2.80;99.90;;;;;;6289886;22;20053;-77
2023/01/23 05:07:39;;;;;;;7.07;5.63;;;2.60;99.90;;;;;;6290378;22;20010;-77
2023/01/23 05:10:08;;;;;;;10.32;5.15;;;2.90;99.90;;;;;;6264283;22;20010;-77
2023/01/23 05:12:34;;;;;;;12.57;5.88;;;2.70;99.90;;;;;;6281610;22;20349;-77
2023/01/23 05:15:03;;;;;;;13.48;6.13;;;3.80;99.90;;;;;;6259248;22;20018;-77
2023/01/23 05:17:36;;;;;;;10.27;6.20;;;5.00;99.90;;;;;;6286951;22;20011;-77
2023/01/23 05:20:13;;;;;;;9.30;5.78;;;2.70;99.90;;;;;;6287252;22;20022;-77
2023/01/23 05:22:51;;;;;;;11.20;6.38;;;2.80;99.90;;;;;;6286146;22;20081;-77
2023/01/23 05:25:26;;;;;;;8.63;6.00;;;3.90;99.90;;;;;;6285622;22;20301;-77
2023/01/23 05:27:52;;;;;;;9.07;5.68;;;2.70;99.90;;;;;;6285555;22;20110;-76
2023/01/23 05:30:21;;;;;;;11.60;6.60;;;2.80;99.90;;;;;;6286442;22;20015;-76
2023/01/23 05:32:47;;;;;;;12.45;7.43;;;4.90;99.90;;;;;;6313594;22;20015;-76
2023/01/23 05:35:14;;;;;;;11.35;6.93;;;2.70;99.90;;;;;;6260365;22;20054;-76
2023/01/23 05:37:40;;;;;;;10.70;6.50;;;3.10;99.90;;;;;;6313826;22;20015;-75
2023/01/23 05:40:20;;;;;;;12.45;6.68;;;2.80;99.90;;;;;;6260768;22;20007;-75
2023/01/23 05:42:46;;;;;;;8.75;6.20;;;2.80;99.90;;;;;;6287858;22;20007;-76
2023/01/23 05:45:12;;;;;;;11.13;6.55;;;3.40;99.90;;;;;;6311103;22;20321;-75
2023/01/23 05:47:38;;;;;;;9.88;6.32;;;2.70;99.90;;;;;;6286242;22;20101;-75
2023/01/23 05:50:06;;;;;;;10.15;6.13;;;3.60;99.90;;;;;;6259810;22;20155;-75
2023/01/23 05:52:34;;;;;;;8.65;5.95;;;2.90;99.90;;;;;;6312121;22;20015;-75
2023/01/23 05:55:00;;;;;;;9.32;6.78;;;3.70;99.90;;;;;;6259301;22;20653;-76
2023/01/23 05:57:26;;;;;;;10.50;6.22;;;3.10;99.90;;;;;;6260286;22;20049;-76
2023/01/23 06:00:03;;;;;;;9.10;6.53;;;3.70;99.90;;;;;;6310642;22;20035;-76
2023/01/23 06:02:41;;;;;;;12.75;6.40;;;2.70;99.90;;;;;;6312257;22;20086;-77
2023/01/23 06:05:08;;;;;;;9.88;6.63;;;2.60;99.90;;;;;;6312577;22;20316;-76
2023/01/23 06:07:34;;;;;;;9.38;5.68;;;2.60;99.90;;;;;;6259417;22;20022;-77
2023/01/23 06:10:00;;;;;;;12.15;6.50;;;5.00;99.90;;;;;;6285433;22;20041;-77
2023/01/23 06:12:29;;;;;;;11.07;6.72;;;3.10;99.90;;;;;;6285558;22;20015;-77
2023/01/23 06:14:54;;;;;;;11.23;7.00;;;2.80;99.90;;;;;;6285113;22;20013;-76
2023/01/23 06:17:20;;;;;;;11.93;7.13;;;2.70;99.90;;;;;;6260318;22;20290;-77
2023/01/23 06:19:47;;;;;;;10.40;5.97;;;4.00;99.90;;;;;;6285348;22;20007;-76
2023/01/23 06:22:12;;;;;;;11.25;6.82;;;4.10;99.90;;;;;;6310505;22;20018;-77
2023/01/23 06:24:38;;;;;;;9.80;6.38;;;2.50;99.90;;;;;;6286420;22;20011;-76
2023/01/23 06:27:07;;;;;;;11.43;6.43;;;4.40;99.90;;;;;;6285353;22;20263;-76
2023/01/23 06:29:34;;;;;;;24.10;18.50;;;3.70;99.90;;;;;;6309979;22;20018;-74
2023/01/23 06:32:00;;;;;;;29.80;17.38;;;2.60;99.90;;;;;;6259282;22;20011;-77
2023/01/23 06:34:26;;;;;;;17.45;9.77;;;3.00;99.90;;;;;;6311008;22;20015;-78
2023/01/23 06:36:51;;;;;;;15.50;8.90;;;2.70;99.90;;;;;;6286975;22;20198;-75
2023/01/23 06:39:18;;;;;;;25.23;14.77;;;;;;;;;;6259037;22;20003;-75
2023/01/23 06:41:43;;;;;;;19.52;11.18;;;2.70;99.90;;;;;;6285826;22;20011;-75
2023/01/23 06:44:09;;;;;;;26.80;11.70;;;2.80;99.90;;;;;;6258749;22;20041;-75
2023/01/23 06:46:35;;;;;;;56.42;25.42;;;2.80;99.90;;;;;;6307242;22;20304;-74
2023/01/23 06:49:01;;;;;;;91.63;44.42;;;2.70;99.90;;;;;;6309142;22;20038;-77
2023/01/23 06:51:29;;;;;;;99.65;45.05;;;2.70;99.90;;;;;;6285247;22;20026;-76
2023/01/23 06:53:55;;;;;;;43.63;20.27;;;5.00;99.90;;;;;;6259267;22;20259;-76
2023/01/23 06:56:21;;;;;;;62.20;30.05;;;2.80;99.90;;;;;;6311225;22;20049;-76
2023/01/23 06:58:47;;;;;;;27.20;15.82;;;5.00;99.90;;;;;;6285385;22;20386;-76
2023/01/23 07:01:16;;;;;;;29.60;20.88;;;3.90;99.90;;;;;;6284863;22;20011;-75
2023/01/23 07:03:44;;;;;;;18.65;9.65;;;3.90;99.90;;;;;;6311964;22;20046;-75
2023/01/23 07:06:11;;;;;;;17.70;11.50;;;3.00;99.90;;;;;;6284488;22;20011;-75
2023/01/23 07:08:37;;;;;;;12.90;7.88;;;2.90;99.90;;;;;;6313063;22;20041;-76
2023/01/23 07:11:03;;;;;;;11.15;7.50;;;2.80;99.90;;;;;;6311107;22;20067;-77
2023/01/23 07:13:29;;;;;;;11.25;6.85;;;2.90;99.90;;;;;;6286179;22;20357;-77
2023/01/23 07:16:01;;;;;;;11.77;7.10;;;2.90;99.90;;;;;;6286442;22;20015;-78
2023/01/23 07:18:29;;;;;;;11.10;7.13;;;3.00;99.90;;;;;;6260941;22;20062;-78
2023/01/23 07:20:54;;;;;;;13.30;7.07;;;2.80;99.90;;;;;;6286659;22;20161;-76
2023/01/23 07:23:24;;;;;;;20.50;14.93;;;2.90;99.90;;;;;;6258843;22;20109;-76
2023/01/23 07:25:50;;;;;;;36.90;20.48;;;2.90;99.90;;;;;;6284737;22;20438;-79
2023/01/23 07:28:16;;;;;;;43.45;19.58;;;2.90;99.90;;;;;;6310448;22;20026;-76
2023/01/23 07:30:41;;;;;;;35.55;19.58;;;2.90;99.90;;;;;;6285110;22;20015;-76
2023/01/23 07:33:07;;;;;;;18.75;11.35;;;2.80;99.90;;;;;;6283897;22;20317;-76
2023/01/23 07:35:33;;;;;;;16.33;9.68;;;3.50;99.90;;;;;;6285791;22;20100;-68
2023/01/23 07:38:01;;;;;;;16.65;9.20;;;2.80;99.90;;;;;;6311427;22;20058;-78
2023/01/23 07:40:28;;;;;;;10.68;7.25;;;3.60;99.90;;;;;;6261943;22;20112;-76
2023/01/23 07:42:55;;;;;;;11.23;7.32;;;2.90;99.90;;;;;;6260662;22;20018;-75
2023/01/23 07:45:21;;;;;;;12.20;6.90;;;3.00;99.90;;;;;;6257871;22;20102;-75
2023/01/23 07:47:47;;;;;;;11.32;7.53;;;2.90;99.90;;;;;;6259985;22;20288;-77
2023/01/23 07:50:15;;;;;;;13.15;7.78;;;2.90;99.90;;;;;;6284066;22;20030;-75
2023/01/23 07:52:44;;;;;;;12.68;8.35;;;2.90;99.90;;;;;;6260639;22;20090;-75
2023/01/23 07:55:09;;;;;;;11.32;7.80;;;4.30;99.90;;;;;;6283569;22;20026;-77
2023/01/23 07:57:35;;;;;;;15.50;8.27;;;3.80;99.90;;;;;;6259441;22;20007;-75
2023/01/23 08:00:01;;;;;;;11.50;6.80;;;3.00;99.90;;;;;;6259322;22;20007;-75
2023/01/23 08:02:27;;;;;;;9.15;6.55;;;2.90;99.90;;;;;;6285376;22;20313;-77
2023/01/23 08:04:58;;;;;;;10.20;6.00;;;2.80;99.90;;;;;;6286063;22;20015;-75
2023/01/23 08:07:24;;;;;;;11.75;6.47;;;2.90;99.90;;;;;;6309713;22;20332;-75
2023/01/23 08:09:49;;;;;;;9.65;6.30;;;4.00;99.90;;;;;;6259666;22;20084;-77
2023/01/23 08:12:15;;;;;;;9.93;5.82;;;3.20;99.90;;;;;;6309622;22;20389;-77
2023/01/23 08:14:40;;;;;;;8.40;6.00;;;3.30;99.90;;;;;;6286248;22;20120;-78
2023/01/23 08:17:06;;;;;;;8.55;5.82;;;2.90;99.90;;;;;;6310825;22;20030;-75
2023/01/23 08:19:34;;;;;;;11.05;5.57;;;2.80;99.90;;;;;;6258024;22;20205;-75
2023/01/23 08:22:02;;;;;;;9.50;6.13;;;2.90;99.90;;;;;;6310194;22;20015;-74
2023/01/23 08:24:28;;;;;;;11.05;5.70;;;2.90;99.90;;;;;;6310409;22;20019;-78
2023/01/23 08:26:53;;;;;;;8.73;5.72;;;2.80;99.90;;;;;;6260224;22;20018;-76
2023/01/23 08:29:19;;;;;;;9.48;6.75;;;2.90;99.90;;;;;;6281861;22;20046;-75
2023/01/23 08:31:45;;;;;;;15.05;11.18;;;2.90;99.90;;;;;;6257674;22;20077;-76
2023/01/23 08:34:10;;;;;;;12.00;7.22;;;3.00;99.90;;;;;;6283241;22;20007;-75
2023/01/23 08:36:36;;;;;;;9.32;6.07;;;2.90;99.90;;;;;;6284307;22;20201;-73
2023/01/23 08:39:02;;;;;;;7.78;5.63;;;3.00;99.90;;;;;;6257834;22;20007;-74
2023/01/23 08:41:28;;;;;;;7.80;5.65;;;3.00;99.90;;;;;;6258005;22;20024;-73
2023/01/23 08:43:53;;;;;;;6.82;4.88;;;2.90;99.90;;;;;;6310224;22;20070;-75
2023/01/23 08:46:19;;;;;;;6.55;4.35;;;3.00;99.90;;;;;;6283906;22;20042;-75
2023/01/23 08:48:45;;;;;;;5.72;4.15;;;4.70;99.90;;;;;;6285582;22;20010;-77
2023/01/23 08:51:16;;;;;;;7.25;5.13;;;3.10;99.90;;;;;;6284525;22;20054;-75
2023/01/23 08:53:45;;;;;;;8.63;5.28;;;3.00;99.90;;;;;;6286012;22;20019;-74
2023/01/23 08:56:16;;;;;;;10.27;5.57;;;3.10;99.90;;;;;;6259480;22;20014;-76
2023/01/23 08:58:42;;;;;;;8.13;4.93;;;3.00;99.90;;;;;;6313142;22;20050;-74
2023/01/23 09:01:16;;;;;;;7.53;5.03;;;4.00;99.90;;;;;;6312455;22;20019;-77
2023/01/23 09:03:42;;;;;;;7.80;5.20;;;3.10;99.90;;;;;;6312393;22;20042;-75
2023/01/23 09:06:10;;;;;;;7.50;5.18;;;3.00;99.90;;;;;;6286316;22;20042;-76
2023/01/23 09:08:36;;;;;;;8.40;5.95;;;4.90;99.90;;;;;;6286369;22;20096;-75
2023/01/23 09:11:06;;;;;;;10.82;5.68;;;3.10;99.90;;;;;;6261084;22;20011;-77
2023/01/23 09:13:32;;;;;;;10.13;5.90;;;3.10;99.90;;;;;;6312888;22;20034;-76
2023/01/23 09:15:59;;;;;;;9.25;6.20;;;3.10;99.90;;;;;;6311975;22;20342;-77
2023/01/23 09:18:24;;;;;;;11.05;5.50;;;3.10;99.90;;;;;;6286187;22;20007;-74
2023/01/23 09:20:51;;;;;;;9.10;5.65;;;4.10;99.90;;;;;;6285047;22;20011;-70
2023/01/23 09:23:17;;;;;;;9.38;5.93;;;3.20;99.90;;;;;;6308789;22;20010;-70
2023/01/23 09:25:43;;;;;;;8.45;5.53;;;3.20;99.90;;;;;;6283082;22;20011;-70
2023/01/23 09:28:26;;;;;;;11.30;6.35;;;3.20;99.90;;;;;;6308193;22;20213;-70
2023/01/23 09:30:52;;;;;;;9.93;5.82;;;3.20;99.90;;;;;;6283341;22;20019;-71
2023/01/23 09:33:23;;;;;;;9.27;6.13;;;3.20;99.90;;;;;;6283217;22;20457;-71
2023/01/23 09:35:52;;;;;;;9.38;6.45;;;4.40;99.90;;;;;;6284323;22;20035;-71
2023/01/23 09:38:18;;;;;;;8.63;5.72;;;3.20;99.90;;;;;;6282980;22;20355;-71
2023/01/23 09:40:56;;;;;;;11.05;5.80;;;3.30;99.90;;;;;;6259781;22;20011;-72
2023/01/23 09:43:31;;;;;;;10.45;6.40;;;3.30;99.90;;;;;;6283367;22;20083;-71
2023/01/23 09:46:09;;;;;;;9.18;6.65;;;3.30;99.90;;;;;;6308116;22;20026;-71
2023/01/23 09:48:52;;;;;;;10.02;6.32;;;3.40;99.90;;;;;;6309870;22;20338;-71
2023/01/23 09:51:27;;;;;;;10.95;6.70;;;3.40;99.90;;;;;;6309408;22;20073;-71
2023/01/23 09:53:58;;;;;;;11.20;7.15;;;3.30;99.90;;;;;;6310780;22;20022;-71
2023/01/23 09:56:46;;;;;;;12.35;7.20;;;3.70;99.90;;;;;;6310048;22;20023;-70
2023/01/23 09:59:27;;;;;;;10.20;6.97;;;3.40;99.90;;;;;;6256884;22;20026;-70
2023/01/23 10:01:53;;;;;;;11.18;6.40;;;3.30;99.90;;;;;;6309060;22;20017;-70
2023/01/23 10:04:20;;;;;;;13.35;7.65;;;3.40;99.90;;;;;;6283477;22;20314;-70
2023/01/23 10:06:57;;;;;;;15.65;8.77;;;3.40;99.90;;;;;;6309763;22;20011;-70
2023/01/23 10:09:54;;;;;;;14.07;8.35;;;3.50;99.90;;;;;;6308672;22;20007;-70
2023/01/23 10:12:31;;;;;;;16.35;8.95;;;3.50;99.90;;;;;;6280633;22;20019;-71
2023/01/23 10:15:13;;;;;;;12.45;7.25;;;3.50;99.90;;;;;;6284903;22;20018;-70
2023/01/23 10:17:56;;;;;;;12.32;7.38;;;3.40;99.90;;;;;;6258243;22;20095;-76
2023/01/23 10:20:44;;;;;;;13.93;7.22;;;3.50;99.90;;;;;;6282499;22;20182;-75
2023/01/23 10:23:29;;;;;;;11.48;7.13;;;3.50;99.90;;;;;;6258101;22;20014;-77
2023/01/23 10:25:55;;;;;;;;;;;3.40;99.90;;;;;;6284622;22;20007;-75
2023/01/23 10:28:38;;;;;;;10.68;6.43;;;3.40;99.90;;;;;;6232685;22;19969;-75
2023/01/23 10:31:30;;;;;;;13.80;7.55;;;3.60;99.90;;;;;;6284535;22;20011;-74
2023/01/23 10:34:22;;;;;;;12.90;7.20;;;3.60;99.90;;;;;;6283669;22;20004;-75
2023/01/23 10:37:20;;;;;;;12.57;7.45;;;3.60;99.90;;;;;;6259426;22;20019;-75
2023/01/23 10:43:14;;;;;;;11.27;6.88;;;3.60;99.90;;;;;;6132711;23;20022;-75
2023/01/23 10:45:42;;;;;;;11.20;7.30;;;3.60;99.90;;;;;;6280886;22;20019;-75
2023/01/23 10:48:42;;;;;;;11.20;6.30;;;3.50;99.90;;;;;;6234707;22;20011;-75
2023/01/23 10:51:45;;;;;;;13.38;7.28;;;3.60;99.90;;;;;;6256985;22;20302;-76
2023/01/23 10:54:18;;;;;;;11.73;7.90;;;3.50;99.90;;;;;;6180840;22;20015;-76
2023/01/23 10:56:56;;;;;;;13.80;8.32;;;3.70;99.90;;;;;;6283925;22;20327;-77
2023/01/23 10:59:35;;;;;;;14.05;8.23;;;3.70;99.90;;;;;;6257470;22;20015;-76
2023/01/23 11:02:13;;;;;;;11.70;7.25;;;3.70;99.90;;;;;;6257359;22;20019;-76
2023/01/23 11:04:41;;;;;;;12.85;7.72;;;3.70;99.90;;;;;;6283665;22;20018;-76
2023/01/23 11:07:26;;;;;;;12.07;7.28;;;4.00;99.90;;;;;;6257967;22;20017;-76
2023/01/23 11:10:00;;;;;;;12.63;7.45;;;3.20;99.90;;;;;;6284490;22;20015;-74
2023/01/23 11:12:32;;;;;;;11.55;7.80;;;3.80;99.90;;;;;;6256824;22;20011;-74
2023/01/23 11:15:12;;;;;;;20.13;11.10;;;3.80;99.90;;;;;;6256813;22;20025;-75
2023/01/23 11:17:40;;;;;;;24.58;12.93;;;4.30;99.90;;;;;;6283120;22;20014;-76
2023/01/23 11:20:23;;;;;;;30.70;17.10;;;3.90;99.90;;;;;;6282558;22;20293;-74
2023/01/23 11:23:04;;;;;;;44.97;24.15;;;3.70;99.90;;;;;;6256443;22;20080;-74
2023/01/23 11:25:30;;;;;;;15.15;9.95;;;3.90;99.90;;;;;;6282102;22;20278;-75
2023/01/23 11:27:58;;;;;;;14.73;9.40;;;3.70;99.90;;;;;;6282429;22;20007;-75
2023/01/23 11:30:42;;;;;;;20.90;12.80;;;3.90;99.90;;;;;;6280058;22;20046;-74
2023/01/23 11:33:18;;;;;;;11.20;7.90;;;3.90;99.90;;;;;;6281708;22;20235;-75
2023/01/23 11:36:02;;;;;;;21.83;11.90;;;4.00;99.90;;;;;;6257002;22;20117;-75
2023/01/23 11:38:42;;;;;;;16.48;9.15;;;3.80;99.90;;;;;;6280820;22;20034;-75
2023/01/23 11:41:11;;;;;;;15.90;8.93;;;3.90;99.90;;;;;;6255338;22;20013;-75
2023/01/23 11:43:38;;;;;;;20.13;9.90;;;6.20;99.90;;;;;;6255020;22;20011;-77
2023/01/23 11:46:16;;;;;;;21.48;11.82;;;4.00;99.90;;;;;;6253688;22;20105;-76
2023/01/23 11:49:20;;;;;;;14.85;9.75;;;4.10;99.90;;;;;;6282273;22;20070;-76
2023/01/23 11:52:20;;;;;;;17.92;11.38;;;4.40;99.90;;;;;;6254097;22;20352;-77
2023/01/23 11:54:58;;;;;;;15.25;8.90;;;4.10;99.90;;;;;;6282740;22;20052;-76
2023/01/23 11:57:42;;;;;;;14.70;8.07;;;4.10;99.90;;;;;;6278584;22;20015;-76
2023/01/23 12:00:33;;;;;;;12.85;8.13;;;4.20;99.90;;;;;;6281520;22;20242;-75
2023/01/23 12:03:41;;;;;;;14.40;8.40;;;2.20;99.90;;;;;;6280609;22;20459;-77
2023/01/23 12:06:26;;;;;;;14.85;8.30;;;4.30;99.90;;;;;;6280720;22;20021;-77
2023/01/23 12:09:16;;;;;;;11.17;7.73;;;4.50;99.90;;;;;;6255022;22;20007;-77
2023/01/23 12:12:12;;;;;;;14.63;8.65;;;4.10;99.90;;;;;;6254786;22;20405;-76
2023/01/23 12:14:55;;;;;;;14.38;8.00;;;4.00;99.90;;;;;;6218489;22;2089899;-74
2023/01/23 12:17:43;;;;;;;14.15;8.88;;;4.00;99.90;;;;;;6311246;22;20022;-74
2023/01/23 12:20:35;;;;;;;13.88;7.78;;;2.50;99.90;;;;;;6284848;22;20022;-75
2023/01/23 12:23:28;;;;;;;15.27;8.27;;;4.10;99.90;;;;;;6262071;22;20015;-76
2023/01/23 12:26:00;;;;;;;13.43;7.95;;;4.10;99.90;;;;;;6288056;22;20045;-75
2023/01/23 12:28:54;;;;;;;13.65;9.00;;;4.20;99.90;;;;;;6284826;22;20022;-74
2023/01/23 12:31:32;;;;;;;12.77;7.72;;;4.20;99.90;;;;;;6312783;22;20037;-74
2023/01/23 12:34:25;;;;;;;11.07;8.02;;;4.30;99.90;;;;;;6289603;22;20006;-75
2023/01/23 12:37:16;;;;;;;11.63;7.93;;;4.20;99.90;;;;;;6284703;22;20011;-76
2023/01/23 12:40:13;;;;;;;13.30;8.25;;;4.10;99.90;;;;;;6313360;22;20006;-75
2023/01/23 12:43:04;;;;;;;13.63;8.63;;;4.10;99.90;;;;;;6310938;22;20015;-76
2023/01/23 12:45:31;;;;;;;10.32;7.00;;;4.10;99.90;;;;;;6287281;22;20021;-76
2023/01/23 12:48:21;;;;;;;14.38;9.35;;;4.80;99.90;;;;;;6313344;22;20015;-76
2023/01/23 12:50:58;;;;;;;11.55;8.18;;;4.00;99.90;;;;;;6286174;22;20262;-76
2023/01/23 12:53:25;;;;;;;15.48;8.32;;;4.00;99.90;;;;;;6312717;22;20007;-77
2023/01/23 12:55:54;;;;;;;11.60;7.43;;;4.00;99.90;;;;;;6288034;22;20069;-75
2023/01/23 12:58:22;;;;;;;10.88;7.25;;;4.10;99.90;;;;;;6285794;22;20034;-76
2023/01/23 13:00:54;;;;;;;10.38;7.53;;;4.00;99.90;;;;;;6311314;22;20019;-76
2023/01/23 13:03:41;;;;;;;204.50;63.50;;;4.00;99.90;;;;;;6286228;22;20088;-76
2023/01/23 13:06:57;;;;;;;40.75;16.45;;;4.00;99.90;;;;;;6314137;22;20015;-75
2023/01/23 13:09:23;;;;;;;23.95;12.25;;;2.40;99.90;;;;;;6313124;22;20078;-75
2023/01/23 13:12:03;;;;;;;43.47;24.05;;;3.90;99.90;;;;;;6312302;22;20018;-76
2023/01/23 13:14:31;;;;;;;41.15;24.33;;;4.00;99.90;;;;;;6313071;22;20270;-75
2023/01/23 13:17:01;;;;;;;24.45;16.52;;;5.30;99.90;;;;;;6313565;22;20011;-76
2023/01/23 13:22:23;;;;;;;;;;;4.90;99.90;;;;;;6311309;22;20015;-77
2023/01/23 13:25:16;;;;;;;13.30;8.88;;;3.80;99.90;;;;;;6286950;22;19965;-74
2023/01/23 13:27:51;;;;;;;10.85;7.97;;;3.90;99.90;;;;;;6291057;22;20020;-76
2023/01/23 13:30:30;;;;;;;10.63;7.00;;;3.90;99.90;;;;;;6310239;22;20309;-75